Time;durP1;ratioP1;P1;durP2;ratioP2;P2;SDS_P1;SDS_P2;PMS_P1;PMS_P2;Temp;Humidity;BMP_temperature;BMP_pressure;BME280_temperature;BME280_humidity;BME280_pressure;Samples;Min_cycle;Max_cycle;Signal;HPM_P1;HPM_P2
2022/01/07 00:00:17;;;;;;;12.07;3.77;;;4.80;99.90;;;;;;5035878;28;20237;-62
2022/01/07 00:02:45;;;;;;;12.00;3.60;;;4.80;99.90;;;;;;5044514;28;20303;-62
2022/01/07 00:05:16;;;;;;;10.03;2.93;;;4.80;99.90;;;;;;5048044;28;20196;-61
2022/01/07 00:07:45;;;;;;;3.30;3.00;;;4.80;99.90;;;;;;5047515;28;20826;-62
2022/01/07 00:10:15;;;;;;;6.13;2.93;;;4.70;99.90;;;;;;5041599;28;20195;-62
2022/01/07 00:12:45;;;;;;;6.83;3.20;;;4.70;99.90;;;;;;5045431;28;20197;-62
2022/01/07 00:15:17;;;;;;;10.30;3.10;;;4.70;99.90;;;;;;5044072;28;20208;-62
2022/01/07 00:17:46;;;;;;;8.20;3.10;;;4.60;99.90;;;;;;5038178;28;20220;-62
2022/01/07 00:20:17;;;;;;;10.23;3.00;;;4.60;99.90;;;;;;5049109;28;20266;-62
2022/01/07 00:22:47;;;;;;;7.43;3.10;;;4.50;99.90;;;;;;5044180;28;20299;-62
2022/01/07 00:25:16;;;;;;;14.53;3.83;;;4.50;99.90;;;;;;5047620;28;20655;-62
2022/01/07 00:27:45;;;;;;;5.80;3.40;;;4.40;99.90;;;;;;5047414;28;20236;-62
2022/01/07 00:30:15;;;;;;;7.53;3.63;;;4.40;99.90;;;;;;5048919;28;20287;-62
2022/01/07 00:32:44;;;;;;;7.47;3.50;;;4.40;99.90;;;;;;5046043;28;20263;-62
2022/01/07 00:35:17;;;;;;;6.07;3.67;;;4.40;99.90;;;;;;5046859;28;20789;-62
2022/01/07 00:37:46;;;;;;;7.93;4.00;;;4.40;99.90;;;;;;5049124;28;20679;-62
2022/01/07 00:40:16;;;;;;;5.00;3.70;;;4.40;99.90;;;;;;5047296;28;20193;-62
2022/01/07 00:42:45;;;;;;;6.50;3.87;;;4.30;99.90;;;;;;5047747;28;20721;-62
2022/01/07 00:45:14;;;;;;;9.97;4.23;;;4.30;99.90;;;;;;5043525;28;20741;-61
2022/01/07 00:47:42;;;;;;;6.30;3.70;;;4.30;99.90;;;;;;5043550;28;20196;-62
2022/01/07 00:50:12;;;;;;;13.80;4.13;;;4.30;99.90;;;;;;5048180;28;20191;-61
2022/01/07 00:52:43;;;;;;;8.20;3.97;;;4.30;99.90;;;;;;5048099;28;20630;-62
2022/01/07 00:55:12;;;;;;;11.70;4.33;;;4.30;99.90;;;;;;5047255;28;20291;-62
2022/01/07 00:57:41;;;;;;;10.77;3.73;;;4.30;99.90;;;;;;5048762;28;20205;-62
2022/01/07 01:00:11;;;;;;;8.07;4.10;;;4.30;99.90;;;;;;5049528;28;20232;-62
2022/01/07 01:02:40;;;;;;;11.77;3.97;;;4.20;99.90;;;;;;5045874;28;20279;-61
2022/01/07 01:05:46;;;;;;;7.77;3.83;;;4.10;99.90;;;;;;5043713;28;20221;-62
2022/01/07 01:08:16;;;;;;;6.83;4.63;;;4.10;99.90;;;;;;5064763;28;20648;-62
2022/01/07 01:10:45;;;;;;;13.40;4.83;;;4.00;99.90;;;;;;5048639;28;20250;-62
2022/01/07 01:13:13;;;;;;;8.67;4.23;;;4.00;99.90;;;;;;5044448;28;20568;-62
2022/01/07 01:15:42;;;;;;;6.77;4.20;;;3.90;99.90;;;;;;5049884;28;20254;-62
2022/01/07 01:18:10;;;;;;;13.37;4.70;;;3.90;99.90;;;;;;5044464;28;20717;-61
2022/01/07 01:20:39;;;;;;;8.60;4.50;;;3.80;99.90;;;;;;5049098;28;20563;-61
2022/01/07 01:23:07;;;;;;;12.87;5.00;;;3.70;99.90;;;;;;5047349;28;20313;-61
2022/01/07 01:25:37;;;;;;;14.90;5.87;;;3.70;99.90;;;;;;5046181;28;20303;-61
2022/01/07 01:28:06;;;;;;;12.40;5.67;;;3.60;99.90;;;;;;5040074;28;20200;-62
2022/01/07 01:30:35;;;;;;;12.67;6.20;;;3.60;99.90;;;;;;5055195;28;20758;-62
2022/01/07 01:33:04;;;;;;;13.20;5.97;;;3.60;99.90;;;;;;5047226;28;20622;-61
2022/01/07 01:35:33;;;;;;;8.80;5.90;;;3.50;99.90;;;;;;5043565;28;20317;-62
2022/01/07 01:38:01;;;;;;;12.00;6.17;;;3.50;99.90;;;;;;5048835;28;20664;-61
2022/01/07 01:40:29;;;;;;;6.60;5.47;;;3.50;99.90;;;;;;5049393;28;20699;-62
2022/01/07 01:43:00;;;;;;;14.00;6.57;;;3.50;99.90;;;;;;5043281;28;20711;-62
2022/01/07 01:45:30;;;;;;;10.57;6.10;;;3.50;99.90;;;;;;5045163;28;20270;-62
2022/01/07 01:47:58;;;;;;;19.60;6.90;;;3.50;99.90;;;;;;5043999;28;20197;-62
2022/01/07 01:50:27;;;;;;;14.13;6.70;;;3.50;99.90;;;;;;5047472;28;20635;-62
2022/01/07 01:52:57;;;;;;;12.87;6.40;;;3.50;99.90;;;;;;5048626;28;20660;-62
2022/01/07 01:55:27;;;;;;;16.37;6.90;;;3.50;99.90;;;;;;5042540;28;20282;-61
2022/01/07 01:57:56;;;;;;;13.03;6.90;;;3.50;99.90;;;;;;5046291;28;20200;-61
2022/01/07 02:00:28;;;;;;;12.73;6.33;;;3.50;99.90;;;;;;5048673;28;20205;-62
2022/01/07 02:02:56;;;;;;;16.77;7.30;;;3.50;99.90;;;;;;5046643;28;20192;-62
2022/01/07 02:05:26;;;;;;;12.07;7.40;;;3.40;99.90;;;;;;5047270;28;20688;-61
2022/01/07 02:07:55;;;;;;;11.97;6.67;;;3.40;99.90;;;;;;5047393;28;20193;-61
2022/01/07 02:10:23;;;;;;;14.83;7.37;;;3.40;99.90;;;;;;5045715;28;20196;-62
2022/01/07 02:12:52;;;;;;;16.60;7.97;;;3.40;99.90;;;;;;5040754;28;20616;-62
2022/01/07 02:15:21;;;;;;;8.97;7.03;;;3.40;99.90;;;;;;5047630;28;20212;-61
2022/01/07 02:17:53;;;;;;;15.50;7.63;;;3.40;99.90;;;;;;5047219;28;20200;-61
2022/01/07 02:20:25;;;;;;;17.67;7.20;;;3.40;99.90;;;;;;5049553;28;20208;-62
2022/01/07 02:22:54;;;;;;;13.23;7.17;;;3.40;99.90;;;;;;5041148;28;20197;-62
2022/01/07 02:25:23;;;;;;;10.93;7.60;;;3.40;99.90;;;;;;5045791;28;20229;-61
2022/01/07 02:27:51;;;;;;;13.00;7.37;;;3.40;99.90;;;;;;5047019;28;20199;-62
2022/01/07 02:30:23;;;;;;;15.33;7.87;;;3.40;99.90;;;;;;5046398;28;20201;-61
2022/01/07 02:32:52;;;;;;;15.47;8.40;;;3.40;99.90;;;;;;5046345;28;20197;-61
2022/01/07 02:35:24;;;;;;;13.70;7.73;;;3.40;99.90;;;;;;5045645;28;20661;-62
2022/01/07 02:37:53;;;;;;;16.93;7.87;;;3.40;99.90;;;;;;5043139;28;20188;-61
2022/01/07 02:40:22;;;;;;;11.80;8.07;;;3.40;99.90;;;;;;5047240;28;20222;-62
2022/01/07 02:42:50;;;;;;;16.83;8.70;;;3.40;99.90;;;;;;5039419;28;20607;-62
2022/01/07 02:45:19;;;;;;;11.43;7.33;;;3.40;99.90;;;;;;5047543;28;20228;-62
2022/01/07 02:47:53;;;;;;;11.87;8.00;;;3.40;99.90;;;;;;5045308;28;20197;-62
2022/01/07 02:50:26;;;;;;;9.97;7.77;;;3.40;99.90;;;;;;5045274;28;20249;-62
2022/01/07 02:52:55;;;;;;;12.60;8.77;;;3.50;99.90;;;;;;5043445;28;20626;-62
2022/01/07 02:55:25;;;;;;;14.27;8.87;;;3.50;99.90;;;;;;5046786;28;20224;-62
2022/01/07 02:57:54;;;;;;;13.20;8.47;;;3.50;99.90;;;;;;5043837;28;21597;-62
2022/01/07 03:00:24;;;;;;;13.97;9.23;;;3.50;99.90;;;;;;5048243;28;20254;-62
2022/01/07 03:02:54;;;;;;;15.83;9.50;;;3.50;99.90;;;;;;5040825;28;20330;-62
2022/01/07 03:05:24;;;;;;;15.23;8.63;;;3.50;99.90;;;;;;5040770;28;20287;-61
2022/01/07 03:07:53;;;;;;;13.77;8.97;;;3.60;99.90;;;;;;5043296;28;20787;-62
2022/01/07 03:10:25;;;;;;;18.00;10.33;;;3.60;99.90;;;;;;5040295;28;20227;-62
2022/01/07 03:12:54;;;;;;;17.43;9.00;;;3.60;99.90;;;;;;5042078;28;20231;-62
2022/01/07 03:15:23;;;;;;;14.33;9.60;;;3.70;99.90;;;;;;5043186;28;20204;-62
2022/01/07 03:17:51;;;;;;;17.73;10.17;;;3.70;99.90;;;;;;5018535;28;20312;-62
2022/01/07 03:20:21;;;;;;;16.57;10.60;;;3.70;99.90;;;;;;5047522;28;20255;-61
2022/01/07 03:22:51;;;;;;;16.77;10.30;;;3.70;99.90;;;;;;5044460;28;20880;-62
2022/01/07 03:25:20;;;;;;;19.33;11.23;;;3.70;99.90;;;;;;5047013;28;20209;-62
2022/01/07 03:27:49;;;;;;;21.33;10.80;;;3.70;99.90;;;;;;5042538;28;20193;-62
2022/01/07 03:30:19;;;;;;;20.33;10.70;;;3.70;99.90;;;;;;5046816;28;20196;-62
2022/01/07 03:32:47;;;;;;;21.43;10.90;;;3.70;99.90;;;;;;5043177;28;20193;-62
2022/01/07 03:35:17;;;;;;;20.83;10.93;;;3.80;99.90;;;;;;5041965;28;20636;-62
2022/01/07 03:37:48;;;;;;;19.67;10.00;;;3.80;99.90;;;;;;5046201;28;20279;-62
2022/01/07 03:40:19;;;;;;;17.77;10.33;;;3.80;99.90;;;;;;5044238;28;20262;-62
2022/01/07 03:42:48;;;;;;;16.93;9.87;;;3.80;99.90;;;;;;5044717;28;20574;-62
2022/01/07 03:45:17;;;;;;;14.67;10.47;;;3.80;99.90;;;;;;5044998;28;20220;-62
2022/01/07 03:47:46;;;;;;;15.80;10.57;;;3.90;99.90;;;;;;5045558;28;20235;-62
2022/01/07 03:50:17;;;;;;;18.90;10.73;;;3.90;99.90;;;;;;5045362;28;20250;-62
2022/01/07 03:52:45;;;;;;;19.47;10.87;;;3.90;99.90;;;;;;5044939;28;20781;-62
2022/01/07 03:55:16;;;;;;;21.83;10.47;;;3.90;99.90;;;;;;5041833;28;20232;-62
2022/01/07 03:57:46;;;;;;;17.60;9.97;;;3.90;99.90;;;;;;5046388;28;20655;-62
2022/01/07 04:00:18;;;;;;;18.43;9.67;;;3.90;99.90;;;;;;5043963;28;20246;-62
2022/01/07 04:02:48;;;;;;;13.77;9.43;;;4.00;99.90;;;;;;5047045;28;20197;-62
2022/01/07 04:05:21;;;;;;;13.73;9.50;;;4.00;99.90;;;;;;5040946;28;20217;-62
2022/01/07 04:07:49;;;;;;;14.93;9.70;;;4.00;99.90;;;;;;5045492;28;20284;-62
2022/01/07 04:10:18;;;;;;;23.43;9.73;;;4.00;99.90;;;;;;5043509;28;20660;-62
2022/01/07 04:12:48;;;;;;;16.10;9.40;;;3.90;99.90;;;;;;5041078;28;20205;-62
2022/01/07 04:15:17;;;;;;;13.40;9.00;;;4.00;99.90;;;;;;5044383;28;20203;-62
2022/01/07 04:17:47;;;;;;;17.10;8.60;;;4.00;99.90;;;;;;5045369;28;20197;-62
2022/01/07 04:20:18;;;;;;;18.20;8.77;;;4.00;99.90;;;;;;5044184;28;20275;-62
2022/01/07 04:22:47;;;;;;;15.13;8.70;;;4.10;99.90;;;;;;5045172;28;20238;-62
2022/01/07 04:25:18;;;;;;;14.53;8.47;;;4.10;99.90;;;;;;5043400;28;20287;-61
2022/01/07 04:27:50;;;;;;;18.40;8.40;;;4.10;99.90;;;;;;5043778;28;20250;-61
2022/01/07 04:30:19;;;;;;;14.87;8.90;;;4.10;99.90;;;;;;5045252;28;20275;-62
2022/01/07 04:32:48;;;;;;;13.83;8.47;;;4.10;99.90;;;;;;5046194;28;20196;-62
2022/01/07 04:35:18;;;;;;;18.93;8.43;;;4.10;99.90;;;;;;5044699;28;20270;-61
2022/01/07 04:37:47;;;;;;;15.93;8.53;;;4.10;99.90;;;;;;5045336;28;20213;-62
2022/01/07 04:40:17;;;;;;;15.50;7.73;;;4.20;99.90;;;;;;5045738;28;20211;-62
2022/01/07 04:42:46;;;;;;;13.30;8.17;;;4.20;99.90;;;;;;5044409;28;20655;-62
2022/01/07 04:45:17;;;;;;;15.93;7.87;;;4.20;99.90;;;;;;5041473;28;20266;-62
2022/01/07 04:47:45;;;;;;;15.67;8.53;;;4.10;99.90;;;;;;5043286;28;20221;-62
2022/01/07 04:50:16;;;;;;;11.80;7.30;;;4.10;99.90;;;;;;5039760;28;20299;-62
2022/01/07 04:52:45;;;;;;;9.57;6.50;;;4.20;99.90;;;;;;5047859;28;20205;-62
2022/01/07 04:55:15;;;;;;;12.70;7.53;;;4.20;99.90;;;;;;5058496;28;20189;-62
2022/01/07 04:57:44;;;;;;;12.43;7.20;;;4.20;99.90;;;;;;5044380;28;20778;-61
2022/01/07 05:00:14;;;;;;;17.80;7.87;;;4.20;99.90;;;;;;5048118;28;20201;-61
2022/01/07 05:02:44;;;;;;;10.33;6.93;;;4.20;99.90;;;;;;5044324;28;20676;-62
2022/01/07 05:05:13;;;;;;;11.67;6.87;;;4.20;99.90;;;;;;5046887;28;20208;-62
2022/01/07 05:07:41;;;;;;;14.53;7.10;;;4.20;99.90;;;;;;5047528;28;20192;-61
2022/01/07 05:10:12;;;;;;;14.60;7.50;;;4.20;99.90;;;;;;5049764;28;20263;-62
2022/01/07 05:12:42;;;;;;;9.57;6.80;;;4.20;99.90;;;;;;5048758;28;20319;-61
2022/01/07 05:15:13;;;;;;;10.80;7.30;;;4.30;99.90;;;;;;5048630;28;20251;-62
2022/01/07 05:17:42;;;;;;;13.97;6.67;;;4.30;99.90;;;;;;5047923;28;20383;-62
2022/01/07 05:20:13;;;;;;;15.40;6.67;;;4.30;99.90;;;;;;5046894;28;20279;-62
2022/01/07 05:22:42;;;;;;;8.77;6.43;;;4.30;99.90;;;;;;5033518;28;20236;-62
2022/01/07 05:25:12;;;;;;;11.10;6.97;;;4.30;99.90;;;;;;5049314;28;20231;-62
2022/01/07 05:27:41;;;;;;;12.60;6.70;;;4.30;99.90;;;;;;5049830;28;20640;-62
2022/01/07 05:30:12;;;;;;;10.80;6.63;;;4.40;99.90;;;;;;5046787;28;20228;-62
2022/01/07 05:32:40;;;;;;;14.57;6.40;;;4.30;99.90;;;;;;5048640;28;20196;-61
2022/01/07 05:35:11;;;;;;;8.77;6.47;;;4.30;99.90;;;;;;5048159;28;20233;-62
2022/01/07 05:37:39;;;;;;;11.43;6.10;;;4.30;99.90;;;;;;5048124;28;20225;-62
2022/01/07 05:40:09;;;;;;;8.43;6.10;;;4.30;99.90;;;;;;5048152;28;20231;-61
2022/01/07 05:42:37;;;;;;;14.87;6.17;;;4.30;99.90;;;;;;5044661;28;20207;-61
2022/01/07 05:45:07;;;;;;;10.43;6.00;;;4.20;99.90;;;;;;5042639;28;20232;-62
2022/01/07 05:47:35;;;;;;;10.27;6.50;;;4.20;99.90;;;;;;5044899;28;20205;-62
2022/01/07 05:50:04;;;;;;;10.07;5.70;;;4.20;99.90;;;;;;5044357;28;20207;-61
2022/01/07 05:52:34;;;;;;;14.57;6.23;;;4.30;99.90;;;;;;5046901;28;20266;-62
2022/01/07 05:55:03;;;;;;;13.00;6.23;;;4.30;99.90;;;;;;5044791;28;20259;-61
2022/01/07 05:57:31;;;;;;;9.13;6.00;;;4.30;99.90;;;;;;5046035;28;20714;-62
2022/01/07 06:00:00;;;;;;;15.80;6.30;;;4.30;99.90;;;;;;5037905;28;20717;-62
2022/01/07 06:02:28;;;;;;;9.43;6.10;;;4.30;99.90;;;;;;5035643;28;20581;-61
2022/01/07 06:04:57;;;;;;;9.10;5.77;;;4.30;99.90;;;;;;5045350;28;20227;-61
2022/01/07 06:07:25;;;;;;;10.30;6.00;;;4.40;99.90;;;;;;5044380;28;20278;-62
2022/01/07 06:09:55;;;;;;;12.27;5.33;;;4.40;99.90;;;;;;5046494;28;21021;-62
2022/01/07 06:12:23;;;;;;;12.33;6.43;;;4.40;99.90;;;;;;5042917;28;20296;-62
2022/01/07 06:14:52;;;;;;;10.63;6.17;;;4.50;99.90;;;;;;5039621;28;20204;-62
2022/01/07 06:17:20;;;;;;;10.63;6.40;;;4.50;99.90;;;;;;5036514;28;20220;-62
2022/01/07 06:19:49;;;;;;;11.67;6.00;;;4.50;99.90;;;;;;5036469;28;20259;-62
2022/01/07 06:22:19;;;;;;;10.53;5.63;;;4.50;99.90;;;;;;5036886;28;20259;-61
2022/01/07 06:24:47;;;;;;;9.20;5.70;;;4.60;99.90;;;;;;5039376;28;20283;-61
2022/01/07 06:27:17;;;;;;;8.87;5.40;;;4.60;99.90;;;;;;5043714;28;20791;-62
2022/01/07 06:29:46;;;;;;;12.60;5.63;;;4.60;99.90;;;;;;5043314;28;20209;-62
2022/01/07 06:32:14;;;;;;;6.67;5.07;;;4.60;99.90;;;;;;5046599;28;20211;-61
2022/01/07 06:34:42;;;;;;;6.93;5.27;;;4.60;99.90;;;;;;5040603;28;20327;-62
2022/01/07 06:37:12;;;;;;;11.60;5.40;;;4.60;99.90;;;;;;5044620;28;20197;-62
2022/01/07 06:39:40;;;;;;;12.67;5.13;;;4.70;99.90;;;;;;5042865;28;20193;-62
2022/01/07 06:42:10;;;;;;;11.43;5.83;;;4.70;99.90;;;;;;5056570;28;20208;-62
2022/01/07 06:44:40;;;;;;;7.00;4.93;;;4.60;99.90;;;;;;5045121;28;20548;-62
2022/01/07 06:47:08;;;;;;;10.07;5.30;;;4.60;99.90;;;;;;5047778;28;20220;-62
2022/01/07 06:49:37;;;;;;;8.40;4.77;;;4.60;99.90;;;;;;5035000;28;20196;-61
2022/01/07 06:52:07;;;;;;;14.57;5.17;;;4.60;99.90;;;;;;5042640;28;20203;-62
2022/01/07 06:54:35;;;;;;;12.03;4.90;;;4.60;99.90;;;;;;5044931;28;20212;-61
2022/01/07 06:57:04;;;;;;;10.37;5.00;;;4.60;99.90;;;;;;5046638;28;20270;-62
2022/01/07 06:59:33;;;;;;;8.03;4.57;;;4.60;99.90;;;;;;5042845;28;20184;-62
2022/01/07 07:02:02;;;;;;;8.83;5.30;;;4.60;99.90;;;;;;5045685;28;20196;-62
2022/01/07 07:04:34;;;;;;;11.07;4.70;;;4.60;99.90;;;;;;5046056;28;20204;-62
2022/01/07 07:07:02;;;;;;;8.20;4.60;;;4.60;99.90;;;;;;5049517;28;20258;-62
2022/01/07 07:09:31;;;;;;;7.93;5.57;;;4.70;99.90;;;;;;5046885;28;20200;-62
2022/01/07 07:12:03;;;;;;;9.87;4.80;;;4.70;99.90;;;;;;5046384;28;20212;-62
2022/01/07 07:14:31;;;;;;;5.00;4.50;;;4.70;99.90;;;;;;5040841;28;20194;-62
2022/01/07 07:17:00;;;;;;;12.40;5.17;;;4.70;99.90;;;;;;5040940;28;20275;-62
2022/01/07 07:19:29;;;;;;;9.27;4.43;;;4.70;99.90;;;;;;5046602;28;20254;-62
2022/01/07 07:21:58;;;;;;;8.97;4.70;;;4.70;99.90;;;;;;5045116;28;20615;-62
2022/01/07 07:24:26;;;;;;;8.83;4.60;;;4.70;99.90;;;;;;5043917;28;20200;-62
2022/01/07 07:26:55;;;;;;;12.87;5.63;;;4.70;99.90;;;;;;5047465;28;20254;-62
2022/01/07 07:29:23;;;;;;;8.07;5.30;;;4.60;99.90;;;;;;5040174;28;20254;-62
2022/01/07 07:31:56;;;;;;;9.10;4.40;;;4.60;99.90;;;;;;5057404;28;20196;-62
2022/01/07 07:34:55;;;;;;;6.07;4.67;;;4.60;99.90;;;;;;5047452;28;20255;-62
2022/01/07 07:37:25;;;;;;;9.97;5.20;;;4.60;99.90;;;;;;5040075;28;20244;-62
2022/01/07 07:39:54;;;;;;;7.37;4.50;;;4.60;99.90;;;;;;5044322;28;21314;-61
2022/01/07 07:42:22;;;;;;;7.67;4.30;;;4.70;99.90;;;;;;5040386;28;20558;-61
2022/01/07 07:44:51;;;;;;;5.83;4.33;;;4.60;99.90;;;;;;5037222;28;22167;-62
2022/01/07 07:47:20;;;;;;;7.80;4.50;;;4.60;99.90;;;;;;5039986;28;20270;-62
2022/01/07 07:49:48;;;;;;;5.67;4.13;;;4.60;99.90;;;;;;5040444;28;20232;-62
2022/01/07 07:52:17;;;;;;;8.33;4.10;;;4.60;99.90;;;;;;5045233;28;20256;-61
2022/01/07 07:54:47;;;;;;;7.90;4.70;;;4.50;99.90;;;;;;5043518;28;20213;-62
2022/01/07 07:57:15;;;;;;;4.90;3.60;;;4.50;99.90;;;;;;5042313;28;20604;-62
2022/01/07 07:59:44;;;;;;;8.40;4.43;;;4.50;99.90;;;;;;5043664;28;20225;-62
2022/01/07 08:02:13;;;;;;;8.90;3.67;;;4.50;99.90;;;;;;5041848;28;20258;-62
2022/01/07 08:04:42;;;;;;;3.87;3.40;;;4.40;99.90;;;;;;5044483;28;20251;-62
2022/01/07 08:07:16;;;;;;;5.83;3.73;;;4.30;99.90;;;;;;5039531;28;20216;-61
2022/01/07 08:09:49;;;;;;;10.30;4.07;;;4.40;99.90;;;;;;5038123;28;20471;-62
2022/01/07 08:12:21;;;;;;;7.83;3.43;;;4.40;99.90;;;;;;5044560;28;20209;-62
2022/01/07 08:17:35;;;;;;;30.00;15.37;;;4.40;99.90;;;;;;5040455;28;20271;-62
2022/01/07 08:20:06;;;;;;;8.53;5.00;;;4.60;99.90;;;;;;5045999;28;20227;-62
2022/01/07 08:22:34;;;;;;;9.57;3.50;;;4.60;99.90;;;;;;5040382;28;20197;-61
2022/01/07 08:25:05;;;;;;;3.60;3.20;;;4.70;99.90;;;;;;5043804;28;20819;-61
2022/01/07 08:27:33;;;;;;;6.23;2.97;;;4.70;99.90;;;;;;5040236;28;20213;-62
2022/01/07 08:30:12;;;;;;;9.73;6.27;;;4.80;99.90;;;;;;5028922;28;20201;-62
2022/01/07 08:35:28;;;;;;;11.47;8.97;;;4.80;99.90;;;;;;5020851;28;20240;-62
2022/01/07 08:37:57;;;;;;;6.17;3.70;;;4.80;99.90;;;;;;5048755;28;20216;-62
2022/01/07 08:40:27;;;;;;;4.57;4.07;;;4.90;99.90;;;;;;5049815;28;20197;-62
2022/01/07 08:42:56;;;;;;;11.87;4.90;;;4.90;99.90;;;;;;5048196;28;20203;-62
2022/01/07 08:45:25;;;;;;;12.87;7.90;;;4.90;99.90;;;;;;5050956;28;20731;-61
2022/01/07 08:47:54;;;;;;;5.47;4.80;;;4.90;99.90;;;;;;5045347;28;20299;-62
2022/01/07 08:50:23;;;;;;;5.67;4.47;;;4.90;99.90;;;;;;5049118;28;20189;-61
2022/01/07 08:52:52;;;;;;;7.47;3.60;;;5.00;99.90;;;;;;5045887;28;20196;-62
2022/01/07 08:55:21;;;;;;;6.57;4.20;;;5.00;99.90;;;;;;5049648;28;20211;-62
2022/01/07 08:57:50;;;;;;;5.27;3.67;;;5.00;99.90;;;;;;5048961;28;20209;-62
2022/01/07 09:00:19;;;;;;;6.77;3.90;;;5.00;99.90;;;;;;5050712;28;20197;-62
2022/01/07 09:02:47;;;;;;;7.30;4.47;;;5.00;99.90;;;;;;5049347;28;20275;-62
2022/01/07 09:05:16;;;;;;;5.70;3.97;;;5.00;99.90;;;;;;5038283;28;20255;-61
2022/01/07 09:07:45;;;;;;;7.17;4.17;;;5.00;99.90;;;;;;5046810;28;20481;-61
2022/01/07 09:10:13;;;;;;;6.23;4.30;;;5.00;99.90;;;;;;5043247;28;20197;-62
2022/01/07 09:12:42;;;;;;;10.90;4.50;;;4.90;99.90;;;;;;5044278;28;20212;-61
2022/01/07 09:15:12;;;;;;;5.57;4.17;;;4.90;99.90;;;;;;5040736;28;20726;-62
2022/01/07 09:17:41;;;;;;;4.80;4.20;;;4.90;99.90;;;;;;5047441;28;20628;-61
2022/01/07 09:20:11;;;;;;;10.23;4.67;;;4.90;99.90;;;;;;5050815;28;20227;-62
2022/01/07 09:22:40;;;;;;;7.07;4.83;;;5.00;99.90;;;;;;5045973;28;20564;-61
2022/01/07 09:25:09;;;;;;;7.63;4.77;;;5.10;99.90;;;;;;5048696;28;20215;-61
2022/01/07 09:27:38;;;;;;;9.33;5.10;;;5.10;99.90;;;;;;5044071;28;20230;-62
2022/01/07 09:30:08;;;;;;;13.20;4.63;;;5.10;99.90;;;;;;5049522;28;20595;-62
2022/01/07 09:32:39;;;;;;;8.63;5.20;;;5.20;99.90;;;;;;5044676;28;20205;-62
2022/01/07 09:35:08;;;;;;;11.57;7.17;;;5.20;99.90;;;;;;5048315;28;20289;-62
2022/01/07 09:37:37;;;;;;;12.23;5.30;;;5.30;99.90;;;;;;5041624;28;20193;-62
2022/01/07 09:40:06;;;;;;;11.07;6.00;;;5.20;99.90;;;;;;5042667;28;20287;-62
2022/01/07 09:42:35;;;;;;;11.43;5.63;;;5.20;99.90;;;;;;5045091;28;20681;-62
2022/01/07 09:45:04;;;;;;;15.83;9.07;;;5.10;99.90;;;;;;5045762;28;20671;-61
2022/01/07 09:47:32;;;;;;;18.67;11.60;;;5.10;99.90;;;;;;5044966;28;20290;-62
2022/01/07 09:50:10;;;;;;;22.27;12.40;;;5.00;99.90;;;;;;5049243;28;20271;-62
2022/01/07 09:52:39;;;;;;;12.83;8.30;;;5.10;99.90;;;;;;5048719;28;20189;-62
2022/01/07 09:55:09;;;;;;;19.27;8.87;;;5.20;99.90;;;;;;5047267;28;20235;-62
2022/01/07 09:57:37;;;;;;;14.73;6.53;;;5.20;99.90;;;;;;5045102;28;20609;-62
2022/01/07 10:00:08;;;;;;;14.00;6.47;;;5.20;99.90;;;;;;5044051;28;20201;-62
2022/01/07 10:02:37;;;;;;;10.67;5.70;;;5.20;99.90;;;;;;5044320;28;20570;-61
2022/01/07 10:05:17;;;;;;;14.43;6.10;;;5.30;99.90;;;;;;5041492;28;20206;-62
2022/01/07 10:07:46;;;;;;;11.60;6.80;;;5.50;99.90;;;;;;5046511;28;20262;-62
2022/01/07 10:10:18;;;;;;;11.60;5.53;;;5.70;99.90;;;;;;5047813;28;20197;-62
2022/01/07 10:12:52;;;;;;;6.27;4.80;;;5.90;99.90;;;;;;5047123;28;20201;-62
2022/01/07 10:15:23;;;;;;;11.30;9.60;;;6.00;99.90;;;;;;5047375;28;20207;-62
2022/01/07 10:17:58;;;;;;;30.03;15.47;;;6.00;99.90;;;;;;5045889;28;20193;-62
2022/01/07 10:20:29;;;;;;;17.57;7.73;;;6.00;99.90;;;;;;5046045;28;20209;-62
2022/01/07 10:23:03;;;;;;;21.33;10.50;;;5.90;99.90;;;;;;5046525;28;20812;-61
2022/01/07 10:25:34;;;;;;;17.03;7.23;;;5.90;99.90;;;;;;5042217;28;20266;-62
2022/01/07 10:28:04;;;;;;;11.47;6.47;;;5.90;99.90;;;;;;5042879;28;20263;-62
2022/01/07 10:30:37;;;;;;;12.40;4.93;;;5.80;99.90;;;;;;5060616;28;20667;-62
2022/01/07 10:33:21;;;;;;;5.53;5.03;;;5.90;99.90;;;;;;5041672;28;20718;-62
2022/01/07 10:35:52;;;;;;;9.40;6.37;;;5.80;99.90;;;;;;5041073;28;22059;-62
2022/01/07 10:38:28;;;;;;;10.13;5.10;;;5.80;99.90;;;;;;5041655;28;20602;-62
2022/01/07 10:40:59;;;;;;;7.50;5.70;;;5.80;99.90;;;;;;5039574;28;20632;-62
2022/01/07 10:43:32;;;;;;;21.93;9.93;;;5.80;99.90;;;;;;5042775;28;20202;-62
2022/01/07 10:46:15;;;;;;;14.13;7.80;;;5.80;99.90;;;;;;5042168;28;20227;-62
2022/01/07 10:48:47;;;;;;;15.37;11.53;;;5.90;99.90;;;;;;5038913;28;20217;-62
2022/01/07 10:51:22;;;;;;;9.43;5.50;;;5.90;99.90;;;;;;5041404;28;20208;-62
2022/01/07 10:53:53;;;;;;;11.13;4.87;;;5.90;99.90;;;;;;5044047;28;20578;-62
2022/01/07 10:56:22;;;;;;;10.13;4.70;;;5.90;99.90;;;;;;5042669;28;20262;-62
2022/01/07 10:58:57;;;;;;;6.00;3.67;;;6.00;99.90;;;;;;5046735;28;20646;-62
2022/01/07 11:01:48;;;;;;;4.60;2.90;;;6.00;99.90;;;;;;5045570;28;20262;-62
2022/01/07 11:04:21;;;;;;;7.53;3.57;;;6.00;99.90;;;;;;5038783;28;20205;-62
2022/01/07 11:06:52;;;;;;;7.87;2.90;;;6.00;99.90;;;;;;5048413;28;20675;-62
2022/01/07 11:09:21;;;;;;;6.50;3.00;;;6.00;99.90;;;;;;5044798;28;20721;-62
2022/01/07 11:11:52;;;;;;;4.23;2.97;;;6.00;99.90;;;;;;5044925;28;20220;-62
2022/01/07 11:14:23;;;;;;;3.80;3.03;;;6.00;99.90;;;;;;5033246;28;20603;-62
2022/01/07 11:16:52;;;;;;;3.43;3.00;;;6.00;99.90;;;;;;5042648;28;20251;-62
2022/01/07 11:19:23;;;;;;;3.63;3.13;;;6.00;99.90;;;;;;5045511;28;20216;-62
2022/01/07 11:21:55;;;;;;;6.07;3.40;;;6.00;99.90;;;;;;5043618;28;20200;-62
2022/01/07 11:24:35;;;;;;;5.20;3.47;;;6.10;99.90;;;;;;5045860;28;20224;-62
2022/01/07 11:27:06;;;;;;;5.33;3.63;;;6.00;99.90;;;;;;5041656;28;20205;-62
2022/01/07 11:29:40;;;;;;;4.47;3.57;;;6.00;99.90;;;;;;5045126;28;20216;-62
2022/01/07 11:32:35;;;;;;;6.33;3.80;;;6.00;99.90;;;;;;5042636;28;20194;-62
2022/01/07 11:35:45;;;;;;;7.60;4.20;;;6.10;99.90;;;;;;5045808;28;20303;-62
2022/01/07 11:38:33;;;;;;;9.17;4.43;;;6.00;99.90;;;;;;5040598;28;20198;-62
2022/01/07 11:41:03;;;;;;;9.57;5.03;;;6.00;99.90;;;;;;5039686;28;20684;-62
2022/01/07 11:43:35;;;;;;;6.70;3.50;;;6.10;99.90;;;;;;5037856;28;20201;-62
2022/01/07 11:46:29;;;;;;;7.27;3.37;;;6.10;99.90;;;;;;5036063;28;20185;-62
2022/01/07 11:49:01;;;;;;;8.53;3.23;;;6.10;99.90;;;;;;5058031;28;20641;-61
2022/01/07 11:51:43;;;;;;;7.63;3.70;;;6.10;99.90;;;;;;5043367;28;20208;-62
2022/01/07 11:54:14;;;;;;;7.77;3.30;;;6.10;99.90;;;;;;5039025;28;20660;-62
2022/01/07 11:56:45;;;;;;;6.57;3.10;;;6.20;99.90;;;;;;5044725;28;20661;-62
2022/01/07 11:59:26;;;;;;;3.83;3.00;;;6.20;99.90;;;;;;5027556;28;20189;-62
2022/01/07 12:02:05;;;;;;;8.47;2.87;;;6.10;99.90;;;;;;5042286;28;20205;-62
2022/01/07 12:04:35;;;;;;;4.07;2.97;;;6.20;99.90;;;;;;5038783;28;20195;-63
2022/01/07 12:07:08;;;;;;;6.73;2.63;;;6.20;99.90;;;;;;5037956;28;20200;-62
2022/01/07 12:09:41;;;;;;;4.37;2.20;;;6.20;99.90;;;;;;5019635;28;20266;-62
2022/01/07 12:12:12;;;;;;;5.67;2.30;;;6.10;99.90;;;;;;5044462;28;20200;-62
2022/01/07 12:14:44;;;;;;;4.77;2.33;;;6.10;99.90;;;;;;5038782;28;20338;-62
2022/01/07 12:17:15;;;;;;;4.80;2.63;;;6.00;99.90;;;;;;5042547;28;20204;-62
2022/01/07 12:20:17;;;;;;;2.90;2.10;;;6.00;99.90;;;;;;5036882;28;20592;-62
2022/01/07 12:22:53;;;;;;;3.27;2.20;;;5.90;99.90;;;;;;5041388;28;20271;-62
2022/01/07 12:25:24;;;;;;;5.53;2.07;;;5.90;99.90;;;;;;5034529;28;20204;-62
2022/01/07 12:28:07;;;;;;;4.10;1.90;;;6.00;99.90;;;;;;5041206;28;20667;-63
2022/01/07 12:30:36;;;;;;;3.00;1.80;;;6.10;99.90;;;;;;5041479;28;20285;-62
2022/01/07 12:33:09;;;;;;;5.10;1.90;;;6.00;99.90;;;;;;5047513;28;20193;-62
2022/01/07 12:35:41;;;;;;;2.47;1.80;;;6.00;99.90;;;;;;5039887;28;20286;-62
2022/01/07 12:38:19;;;;;;;2.87;1.87;;;6.00;99.90;;;;;;5040273;28;20296;-62
2022/01/07 12:41:01;;;;;;;3.30;2.00;;;6.00;99.90;;;;;;5043192;28;20215;-62
2022/01/07 12:43:34;;;;;;;2.23;1.80;;;6.10;99.90;;;;;;5043320;28;20671;-62
2022/01/07 12:46:05;;;;;;;3.23;1.80;;;6.10;99.90;;;;;;5051159;28;20193;-62
2022/01/07 12:48:39;;;;;;;3.17;1.80;;;6.10;99.90;;;;;;5037109;28;20276;-63
2022/01/07 12:51:09;;;;;;;1.90;1.73;;;6.10;99.90;;;;;;5034566;28;20215;-62
2022/01/07 12:53:53;;;;;;;5.97;1.97;;;6.10;99.90;;;;;;5053954;28;20196;-62
2022/01/07 12:56:26;;;;;;;23.03;10.93;;;6.10;99.90;;;;;;5039153;28;20188;-62
2022/01/07 12:58:54;;;;;;;5.77;5.07;;;6.10;99.90;;;;;;5046022;28;20211;-62
2022/01/07 13:01:27;;;;;;;3.07;2.47;;;6.20;99.90;;;;;;5043047;28;20576;-62
2022/01/07 13:04:07;;;;;;;2.40;2.17;;;6.10;99.90;;;;;;5036818;28;20211;-62
2022/01/07 13:06:41;;;;;;;4.37;2.00;;;6.10;99.90;;;;;;5035159;28;20719;-62
2022/01/07 13:09:10;;;;;;;5.67;1.83;;;6.10;99.90;;;;;;5038628;28;20211;-62
2022/01/07 13:11:49;;;;;;;4.60;1.70;;;6.00;99.90;;;;;;5042966;28;20192;-62
2022/01/07 13:14:20;;;;;;;2.03;1.80;;;6.00;99.90;;;;;;5047904;28;20235;-62